createdAt,value
2023-03-11T00:01:42.537Z,72.12
2023-03-11T00:05:50.454Z,71.98
2023-03-11T00:09:58.445Z,71.96
2023-03-11T00:14:06.982Z,71.59
2023-03-11T00:18:15.933Z,71.44
2023-03-11T00:22:23.862Z,71.14
2023-03-11T00:26:32.065Z,70.73
2023-03-11T00:30:41.656Z,70.89
2023-03-11T00:34:49.759Z,70.59
2023-03-11T00:38:57.512Z,70.57
2023-03-11T00:43:05.638Z,70.34
2023-03-11T00:47:14.202Z,70.59
2023-03-11T00:51:21.988Z,70.82
2023-03-11T00:55:31.803Z,71.38
2023-03-11T00:59:41.045Z,71.69
2023-03-11T01:03:49.643Z,71.86
2023-03-11T01:07:56.954Z,71.67
2023-03-11T01:12:05.724Z,71.11
2023-03-11T01:16:13.539Z,71.44
2023-03-11T01:20:24.271Z,71.63
2023-03-11T01:24:32.439Z,71.72
2023-03-11T01:28:39.839Z,72.07
2023-03-11T01:32:47.912Z,72.06
2023-03-11T01:36:55.547Z,72.08
2023-03-11T01:41:03.649Z,72.22
2023-03-11T01:45:33.085Z,72.16
2023-03-11T01:49:42.239Z,72.00
2023-03-11T01:53:50.149Z,72.05
2023-03-11T01:57:58.612Z,72.04
2023-03-11T02:02:10.472Z,72.00
2023-03-11T02:06:21.271Z,72.63
2023-03-11T02:10:29.754Z,72.57
2023-03-11T02:14:38.349Z,72.78
2023-03-11T02:18:46.832Z,72.76
2023-03-11T02:22:57.400Z,73.07
2023-03-11T02:27:10.006Z,73.15
2023-03-11T02:31:18.862Z,73.10
2023-03-11T02:35:26.972Z,72.62
2023-03-11T02:39:37.343Z,72.34
2023-03-11T02:43:46.682Z,72.41
2023-03-11T02:47:55.655Z,72.58
2023-03-11T02:52:03.331Z,72.91
2023-03-11T02:56:11.373Z,71.66
2023-03-11T03:00:21.280Z,67.42
2023-03-11T03:04:28.944Z,67.36
2023-03-11T03:08:37.275Z,68.17
2023-03-11T03:12:46.241Z,68.75
2023-03-11T03:16:54.681Z,69.54
2023-03-11T03:21:02.856Z,69.95
2023-03-11T03:25:12.279Z,69.29
2023-03-11T03:29:21.137Z,67.55
2023-03-11T03:33:28.899Z,67.85
2023-03-11T03:37:38.370Z,67.70
2023-03-11T03:41:46.280Z,67.84
2023-03-11T03:46:01.230Z,67.52
2023-03-11T03:50:13.225Z,66.89
2023-03-11T03:54:21.146Z,67.56
2023-03-11T03:58:28.673Z,67.33
2023-03-11T04:02:36.199Z,66.89
2023-03-11T04:06:45.255Z,67.25
2023-03-11T04:11:00.570Z,67.49
2023-03-11T04:15:11.155Z,66.92
2023-03-11T04:19:19.585Z,67.77
2023-03-11T04:23:27.445Z,68.10
2023-03-11T04:27:35.309Z,68.08
2023-03-11T04:31:43.069Z,68.29
2023-03-11T04:35:51.713Z,68.15
2023-03-11T04:39:59.491Z,68.24
2023-03-11T04:44:07.683Z,68.23
2023-03-11T04:48:15.579Z,68.95
2023-03-11T04:52:23.251Z,68.95
2023-03-11T04:56:30.820Z,69.04
2023-03-11T05:00:38.754Z,69.60
2023-03-11T05:04:46.557Z,70.15
2023-03-11T05:08:54.304Z,70.41
2023-03-11T05:13:01.852Z,70.34
2023-03-11T05:17:13.800Z,70.65
2023-03-11T05:21:22.657Z,71.23
2023-03-11T05:25:30.283Z,71.63
2023-03-11T05:29:38.224Z,72.26
2023-03-11T05:33:45.845Z,73.07
2023-03-11T05:37:53.822Z,73.88
2023-03-11T05:42:03.891Z,75.13
2023-03-11T05:46:13.363Z,75.93
2023-03-11T05:50:22.111Z,76.47
2023-03-11T05:54:30.031Z,77.33
2023-03-11T05:58:38.015Z,77.79
2023-03-11T06:02:47.159Z,78.15
2023-03-11T06:06:56.422Z,78.93
2023-03-11T06:11:08.881Z,79.56
2023-03-11T06:15:16.860Z,79.75
2023-03-11T06:19:24.752Z,80.26
2023-03-11T06:23:33.235Z,80.69
2023-03-11T06:27:44.645Z,81.35
2023-03-11T06:31:52.570Z,81.60
2023-03-11T06:36:01.812Z,81.81
2023-03-11T06:40:12.677Z,82.18
2023-03-11T06:44:20.341Z,82.48
2023-03-11T06:48:30.030Z,82.93
2023-03-11T06:52:37.985Z,83.18
2023-03-11T06:56:45.570Z,83.47
2023-03-11T07:00:53.770Z,83.64
2023-03-11T07:05:01.872Z,83.95
2023-03-11T07:09:09.852Z,84.14
2023-03-11T07:13:18.204Z,84.37
2023-03-11T07:17:27.053Z,84.49
2023-03-11T07:21:35.684Z,84.69
2023-03-11T07:25:51.934Z,84.69
2023-03-11T07:29:59.805Z,84.85
2023-03-11T07:34:12.505Z,85.16
2023-03-11T07:38:21.173Z,85.15
2023-03-11T07:42:28.846Z,85.28
2023-03-11T07:46:36.838Z,85.36
2023-03-11T07:50:47.999Z,85.81
2023-03-11T07:54:55.482Z,85.84
2023-03-11T07:59:04.821Z,86.00
2023-03-11T08:03:13.068Z,86.38
2023-03-11T08:07:22.040Z,86.39
2023-03-11T08:11:30.257Z,86.37
2023-03-11T08:15:40.076Z,86.23
2023-03-11T08:19:48.347Z,85.91
2023-03-11T08:24:00.621Z,86.23
2023-03-11T08:28:10.036Z,86.24
2023-03-11T08:32:18.245Z,86.47
2023-03-11T08:36:26.646Z,86.40
2023-03-11T08:40:34.970Z,86.16
2023-03-11T08:44:42.706Z,86.24
2023-03-11T08:48:50.045Z,85.76
2023-03-11T08:53:00.894Z,85.70
2023-03-11T08:57:08.867Z,85.74
2023-03-11T09:01:16.667Z,86.05
2023-03-11T09:05:24.460Z,85.98
2023-03-11T09:09:31.801Z,85.95
2023-03-11T09:13:41.177Z,85.56
2023-03-11T09:17:49.221Z,83.99
2023-03-11T09:21:56.914Z,83.63
2023-03-11T09:26:05.669Z,83.88
2023-03-11T09:30:18.064Z,83.73
2023-03-11T09:34:26.352Z,83.76
2023-03-11T09:38:38.168Z,84.32
2023-03-11T09:42:55.472Z,83.56
2023-03-11T09:47:38.555Z,83.18
2023-03-11T09:51:50.726Z,83.12
2023-03-11T09:56:00.023Z,83.31
2023-03-11T10:00:14.342Z,83.29
2023-03-11T10:04:27.040Z,83.49
2023-03-11T10:08:40.792Z,83.13
2023-03-11T10:12:56.472Z,82.56
2023-03-11T10:17:16.038Z,81.68
2023-03-11T10:21:34.669Z,81.14
2023-03-11T10:25:51.352Z,80.95
2023-03-11T10:30:07.590Z,80.01
2023-03-11T10:34:19.414Z,79.30
2023-03-11T10:38:30.811Z,79.52
2023-03-11T10:42:39.520Z,78.73
2023-03-11T10:46:48.115Z,78.36
2023-03-11T10:51:03.120Z,79.32
2023-03-11T10:55:14.058Z,79.80
2023-03-11T10:59:28.490Z,79.01
2023-03-11T11:03:37.590Z,77.48
2023-03-11T11:07:46.063Z,76.05
2023-03-11T11:12:08.119Z,75.40
2023-03-11T11:16:23.244Z,74.77
2023-03-11T11:20:33.130Z,74.42
2023-03-11T11:24:47.069Z,74.99
2023-03-11T11:29:09.553Z,74.90
2023-03-11T11:33:29.800Z,75.35
2023-03-11T11:37:39.154Z,73.87
2023-03-11T11:41:52.459Z,72.67
2023-03-11T11:46:02.269Z,71.21
2023-03-11T11:50:18.292Z,70.61
2023-03-11T11:54:29.924Z,69.95
2023-03-11T11:58:38.585Z,70.01
2023-03-11T12:02:57.816Z,70.16
2023-03-11T12:07:16.763Z,70.35
2023-03-11T12:11:28.771Z,71.83
2023-03-11T12:15:41.173Z,72.85
2023-03-11T12:19:53.926Z,73.63
2023-03-11T12:24:16.032Z,74.34
2023-03-11T12:28:30.603Z,77.74
2023-03-11T12:32:41.870Z,78.56
2023-03-11T12:36:50.951Z,78.19
2023-03-11T12:41:04.311Z,79.09
2023-03-11T12:45:38.593Z,78.82
2023-03-11T12:49:47.118Z,78.72
2023-03-11T12:53:55.533Z,78.54
2023-03-11T12:58:26.368Z,78.23
2023-03-11T13:02:49.582Z,75.44
2023-03-11T13:07:13.866Z,76.18
2023-03-11T13:11:41.029Z,74.73
2023-03-11T13:15:48.980Z,71.79
2023-03-11T13:19:59.331Z,68.79
2023-03-11T13:24:36.587Z,67.89
2023-03-11T13:29:15.051Z,67.86
2023-03-11T13:33:30.592Z,68.70
2023-03-11T13:37:51.004Z,71.05
2023-03-11T13:41:59.415Z,75.66
2023-03-11T13:46:09.897Z,76.68
2023-03-11T13:50:22.828Z,77.07
2023-03-11T13:54:43.602Z,76.38
2023-03-11T13:58:51.202Z,75.62
2023-03-11T14:03:00.950Z,75.10
2023-03-11T14:07:21.600Z,74.18
2023-03-11T14:11:31.164Z,73.50
2023-03-11T14:15:47.204Z,73.04
2023-03-11T14:20:15.118Z,72.86
2023-03-11T14:24:26.163Z,73.28
2023-03-11T14:28:36.467Z,73.16
2023-03-11T14:32:44.284Z,73.04
2023-03-11T14:36:56.596Z,73.07
2023-03-11T14:41:06.980Z,72.37
2023-03-11T14:45:18.585Z,72.65
2023-03-11T14:49:26.886Z,72.32
2023-03-11T14:53:39.263Z,71.70
2023-03-11T14:57:51.074Z,71.68
2023-03-11T15:02:01.447Z,71.17
2023-03-11T15:06:14.569Z,70.63
2023-03-11T15:10:24.074Z,71.16
2023-03-11T15:14:35.213Z,71.35
2023-03-11T15:18:43.217Z,71.52
2023-03-11T15:23:02.218Z,72.05
2023-03-11T15:27:30.158Z,72.58
2023-03-11T15:31:40.150Z,72.82
2023-03-11T15:35:51.039Z,72.75
2023-03-11T15:40:12.658Z,72.37
2023-03-11T15:44:29.155Z,72.39
2023-03-11T15:48:37.210Z,72.01
2023-03-11T15:52:44.954Z,71.52
2023-03-11T15:56:52.925Z,70.86
2023-03-11T16:01:00.769Z,70.26
2023-03-11T16:05:16.264Z,70.20
2023-03-11T16:09:28.357Z,70.22
2023-03-11T16:13:36.195Z,69.79
2023-03-11T16:17:49.803Z,69.73
2023-03-11T16:21:58.876Z,69.46
2023-03-11T16:26:08.512Z,69.63
2023-03-11T16:30:17.762Z,69.95
2023-03-11T16:34:27.029Z,70.22
2023-03-11T16:38:37.788Z,70.31
2023-03-11T16:42:46.409Z,70.59
2023-03-11T16:46:54.347Z,70.87
2023-03-11T16:51:03.198Z,70.77
2023-03-11T16:55:11.971Z,70.55
2023-03-11T16:59:21.020Z,70.88
2023-03-11T17:03:34.480Z,72.23
2023-03-11T17:07:48.998Z,73.50
2023-03-11T17:11:56.597Z,75.37
2023-03-11T17:16:05.141Z,75.77
2023-03-11T17:20:14.736Z,75.88
2023-03-11T17:24:22.323Z,76.16
2023-03-11T17:28:30.170Z,76.37
2023-03-11T17:32:38.135Z,76.18
2023-03-11T17:36:45.967Z,75.67
2023-03-11T17:40:53.940Z,75.67
2023-03-11T17:45:01.757Z,75.87
2023-03-11T17:49:11.423Z,75.76
2023-03-11T17:53:19.151Z,75.82
2023-03-11T17:57:26.904Z,76.04
2023-03-11T18:01:36.383Z,76.24
2023-03-11T18:05:44.548Z,76.67
2023-03-11T18:09:54.028Z,77.09
2023-03-11T18:14:02.229Z,77.57
2023-03-11T18:18:10.457Z,77.99
2023-03-11T18:22:18.902Z,78.23
2023-03-11T18:26:28.838Z,78.75
2023-03-11T18:30:39.842Z,78.73
2023-03-11T18:34:50.634Z,78.78
2023-03-11T18:38:59.487Z,78.65
2023-03-11T18:43:07.991Z,78.58
2023-03-11T18:47:16.348Z,78.80
2023-03-11T18:51:24.943Z,78.49
2023-03-11T18:55:32.157Z,78.36
2023-03-11T18:59:40.090Z,78.27
2023-03-11T19:03:50.480Z,78.17
2023-03-11T19:07:58.635Z,78.12
2023-03-11T19:12:06.640Z,78.11
2023-03-11T19:16:15.555Z,77.97
2023-03-11T19:20:27.275Z,77.74
2023-03-11T19:24:35.498Z,77.62
2023-03-11T19:28:43.379Z,77.48
2023-03-11T19:32:53.258Z,77.45
2023-03-11T19:37:01.101Z,77.05
2023-03-11T19:41:10.224Z,76.91
2023-03-11T19:45:18.394Z,76.75
2023-03-11T19:49:26.211Z,76.59
2023-03-11T19:53:34.475Z,76.53
2023-03-11T19:57:42.438Z,76.12
2023-03-11T20:01:50.915Z,76.06
2023-03-11T20:06:05.349Z,75.88
2023-03-11T20:10:17.412Z,75.92
2023-03-11T20:14:25.753Z,75.93
2023-03-11T20:18:34.897Z,76.10
2023-03-11T20:22:43.340Z,75.96
2023-03-11T20:26:51.792Z,75.98
2023-03-11T20:30:59.761Z,75.90
2023-03-11T20:35:10.186Z,75.73
2023-03-11T20:39:19.175Z,75.92
2023-03-11T20:43:26.836Z,76.12
2023-03-11T20:47:34.451Z,76.30
2023-03-11T20:51:44.117Z,76.42
2023-03-11T20:55:52.298Z,76.33
2023-03-11T21:00:01.000Z,76.63
2023-03-11T21:04:09.576Z,76.66
2023-03-11T21:08:18.832Z,76.58
2023-03-11T21:12:29.229Z,76.61
2023-03-11T21:16:40.328Z,76.62
2023-03-11T21:20:48.245Z,76.89
2023-03-11T21:24:57.167Z,76.85
2023-03-11T21:29:05.654Z,77.19
2023-03-11T21:33:14.439Z,77.41
2023-03-11T21:37:22.565Z,77.34
2023-03-11T21:41:31.353Z,77.42
2023-03-11T21:45:41.072Z,77.45
2023-03-11T21:49:49.593Z,77.53
2023-03-11T21:53:57.972Z,77.70
2023-03-11T21:58:06.098Z,77.54
2023-03-11T22:02:17.817Z,77.58
2023-03-11T22:06:26.034Z,77.72
2023-03-11T22:10:35.575Z,77.77
2023-03-11T22:14:43.159Z,77.95
2023-03-11T22:18:51.410Z,77.89
2023-03-11T22:22:59.484Z,78.15
2023-03-11T22:27:07.014Z,77.91
2023-03-11T22:31:16.996Z,78.00
2023-03-11T22:35:25.763Z,78.03
2023-03-11T22:39:33.561Z,78.03
2023-03-11T22:43:42.016Z,78.10
2023-03-11T22:47:50.436Z,78.32
2023-03-11T22:51:59.650Z,78.37
2023-03-11T22:56:12.883Z,78.28
2023-03-11T23:00:22.958Z,78.09
2023-03-11T23:04:30.904Z,78.16
2023-03-11T23:08:39.426Z,78.12
2023-03-11T23:12:48.351Z,78.01
2023-03-11T23:16:56.334Z,77.90
2023-03-11T23:21:03.933Z,77.69
2023-03-11T23:25:16.085Z,77.84
2023-03-11T23:29:23.884Z,77.69
2023-03-11T23:33:31.559Z,77.64
2023-03-11T23:37:39.304Z,77.44
2023-03-11T23:41:46.873Z,77.41
2023-03-11T23:45:55.149Z,77.11
2023-03-11T23:50:02.916Z,76.91
2023-03-11T23:54:10.597Z,76.88
2023-03-11T23:58:19.112Z,76.57
